Time;durP1;ratioP1;P1;durP2;ratioP2;P2;SDS_P1;SDS_P2;PMS_P1;PMS_P2;Temp;Humidity;BMP_temperature;BMP_pressure;BME280_temperature;BME280_humidity;BME280_pressure;Samples;Min_cycle;Max_cycle;Signal;HPM_P1;HPM_P2
2022/08/09 00:01:20;;;;;;;2.58;1.75;;;19.20;99.90;;;;;;5012099;28;20195;-83
2022/08/09 00:03:46;;;;;;;9.02;1.65;;;19.10;99.90;;;;;;5012206;28;20168;-83
2022/08/09 00:06:11;;;;;;;3.50;1.92;;;19.20;99.90;;;;;;5013214;28;20722;-83
2022/08/09 00:08:37;;;;;;;2.25;1.75;;;19.40;99.90;;;;;;5012243;28;20298;-84
2022/08/09 00:11:02;;;;;;;3.40;2.15;;;19.30;99.90;;;;;;5012125;28;20193;-83
2022/08/09 00:13:28;;;;;;;1.48;1.35;;;19.30;99.90;;;;;;5013387;28;20604;-83
2022/08/09 00:15:53;;;;;;;2.72;1.80;;;19.30;99.90;;;;;;5011935;28;20170;-83
2022/08/09 00:18:19;;;;;;;3.08;1.85;;;19.20;99.90;;;;;;5011716;28;20529;-83
2022/08/09 00:20:45;;;;;;;4.97;2.38;;;19.30;99.90;;;;;;5011469;28;20244;-83
2022/08/09 00:23:10;;;;;;;4.38;1.95;;;19.30;99.90;;;;;;5011876;28;20176;-83
2022/08/09 00:25:36;;;;;;;4.63;2.20;;;19.40;99.90;;;;;;5011575;28;20669;-83
2022/08/09 00:28:02;;;;;;;5.90;2.28;;;19.30;99.90;;;;;;5012897;28;20176;-83
2022/08/09 00:30:28;;;;;;;3.13;2.10;;;19.20;99.90;;;;;;5011361;28;20191;-83
2022/08/09 00:32:53;;;;;;;7.10;1.90;;;19.20;99.90;;;;;;5012778;28;20274;-83
2022/08/09 00:35:19;;;;;;;11.98;2.60;;;19.10;99.90;;;;;;5011295;28;20167;-83
2022/08/09 00:37:44;;;;;;;7.43;1.58;;;19.00;99.90;;;;;;5011929;28;20241;-83
2022/08/09 00:40:10;;;;;;;3.80;2.00;;;19.10;99.90;;;;;;5011783;28;20188;-83
2022/08/09 00:42:36;;;;;;;2.60;1.90;;;19.00;99.90;;;;;;5011762;28;20737;-83
2022/08/09 00:45:03;;;;;;;2.30;2.10;;;18.90;99.90;;;;;;5012009;28;20263;-83
2022/08/09 00:47:29;;;;;;;2.78;2.08;;;18.90;99.90;;;;;;5012667;28;20176;-83
2022/08/09 00:49:55;;;;;;;4.10;1.83;;;18.70;99.90;;;;;;5011220;28;20192;-83
2022/08/09 00:52:21;;;;;;;3.38;1.95;;;18.90;99.90;;;;;;5011800;28;20183;-84
2022/08/09 00:54:48;;;;;;;2.30;2.10;;;18.90;99.90;;;;;;5011738;28;20172;-83
2022/08/09 00:57:13;;;;;;;3.25;2.00;;;18.80;99.90;;;;;;5011581;28;20231;-83
2022/08/09 00:59:42;;;;;;;4.55;2.22;;;18.70;99.90;;;;;;5011217;28;20626;-83
2022/08/09 01:02:08;;;;;;;5.30;2.53;;;18.80;99.90;;;;;;5011507;28;20633;-84
2022/08/09 01:04:57;;;;;;;2.60;2.05;;;18.90;99.90;;;;;;5011433;28;20179;-84
2022/08/09 01:07:58;;;;;;;2.67;2.45;;;18.50;99.90;;;;;;5012385;28;20218;-83
2022/08/09 01:10:49;;;;;;;5.68;2.80;;;18.60;99.90;;;;;;5015158;28;20226;-84
2022/08/09 01:13:25;;;;;;;2.58;2.38;;;18.60;99.90;;;;;;5016712;28;20172;-84
2022/08/09 01:15:55;;;;;;;8.48;2.15;;;18.50;99.90;;;;;;5016709;28;20180;-86
2022/08/09 01:18:28;;;;;;;3.38;2.45;;;18.60;99.90;;;;;;5015334;28;20200;-84
2022/08/09 01:20:53;;;;;;;2.95;2.38;;;18.70;99.90;;;;;;5016552;28;20204;-83
2022/08/09 01:23:52;;;;;;;8.02;2.90;;;18.80;99.90;;;;;;5014866;28;20172;-85
2022/08/09 01:26:42;;;;;;;4.05;2.47;;;18.70;99.90;;;;;;5015314;28;20320;-84
2022/08/09 01:29:11;;;;;;;3.50;3.03;;;18.50;99.90;;;;;;5015182;28;20652;-84
2022/08/09 01:31:38;;;;;;;4.57;2.92;;;18.40;99.90;;;;;;5015459;28;20177;-83
2022/08/09 01:34:06;;;;;;;2.55;2.35;;;18.50;99.90;;;;;;5016491;28;20161;-83
2022/08/09 01:36:33;;;;;;;3.20;2.70;;;18.30;99.90;;;;;;5015304;28;20168;-83
2022/08/09 01:39:01;;;;;;;6.13;2.88;;;18.30;99.90;;;;;;5015098;28;20529;-84
2022/08/09 01:41:34;;;;;;;3.88;2.70;;;18.50;99.90;;;;;;5015101;28;20231;-84
2022/08/09 01:44:02;;;;;;;5.78;2.42;;;18.50;99.90;;;;;;5015085;28;20892;-82
2022/08/09 01:46:33;;;;;;;5.10;3.17;;;18.50;99.90;;;;;;5016469;28;20213;-86
2022/08/09 01:49:04;;;;;;;5.90;2.60;;;18.70;99.90;;;;;;5015927;28;20235;-84
2022/08/09 01:51:31;;;;;;;12.32;2.90;;;18.50;99.90;;;;;;5014735;28;20204;-85
2022/08/09 01:54:01;;;;;;;4.78;2.20;;;18.30;99.90;;;;;;5014992;28;20172;-86
2022/08/09 01:56:29;;;;;;;3.88;2.33;;;18.50;99.90;;;;;;5014711;28;20184;-83
2022/08/09 01:58:57;;;;;;;2.92;2.17;;;18.50;99.90;;;;;;5016054;28;20246;-84
2022/08/09 02:01:25;;;;;;;6.00;2.38;;;18.40;99.90;;;;;;5015593;28;20192;-84
2022/08/09 02:03:54;;;;;;;5.97;2.53;;;18.40;99.90;;;;;;5014693;28;20169;-83
2022/08/09 02:07:07;;;;;;;5.53;2.50;;;18.50;99.90;;;;;;5014328;28;20677;-83
2022/08/09 02:09:09;;;;;;;3.90;2.50;;;18.50;99.90;;;;;;5015692;28;20175;-84
2022/08/09 02:11:34;;;;;;;2.63;2.28;;;18.40;99.90;;;;;;5014383;28;20172;-83
2022/08/09 02:14:02;;;;;;;5.85;2.90;;;18.50;99.90;;;;;;5015384;28;20179;-83
2022/08/09 02:16:32;;;;;;;3.42;2.67;;;18.50;99.90;;;;;;5014171;28;20712;-84
2022/08/09 02:18:58;;;;;;;7.05;2.83;;;18.50;99.90;;;;;;5013530;28;20176;-83
2022/08/09 02:21:25;;;;;;;2.85;2.60;;;18.50;99.90;;;;;;5015003;28;20188;-83
2022/08/09 02:23:54;;;;;;;2.90;2.45;;;18.60;99.90;;;;;;5013850;28;20633;-83
2022/08/09 02:26:22;;;;;;;3.22;2.75;;;18.50;99.90;;;;;;5015303;28;20213;-83
2022/08/09 02:28:55;;;;;;;3.20;2.55;;;18.30;99.90;;;;;;5013960;28;20586;-83
2022/08/09 02:31:29;;;;;;;4.25;2.70;;;18.10;99.90;;;;;;5013922;28;20242;-82
2022/08/09 02:33:59;;;;;;;2.35;2.00;;;18.20;99.90;;;;;;5013929;28;20172;-83
2022/08/09 02:36:39;;;;;;;4.70;2.20;;;18.20;99.90;;;;;;5013866;28;20195;-83
2022/08/09 02:39:08;;;;;;;2.45;2.25;;;18.10;99.90;;;;;;5013611;28;20541;-83
2022/08/09 02:42:15;;;;;;;5.10;2.72;;;18.20;99.90;;;;;;5014753;28;20211;-83
2022/08/09 02:44:46;;;;;;;8.45;3.05;;;18.20;99.90;;;;;;5004924;28;20227;-83
2022/08/09 02:47:13;;;;;;;2.53;2.22;;;17.90;99.90;;;;;;5013561;28;20216;-83
2022/08/09 02:50:08;;;;;;;9.70;2.65;;;17.80;99.90;;;;;;5013508;28;20192;-83
2022/08/09 02:52:43;;;;;;;5.07;2.75;;;17.90;99.90;;;;;;5012679;28;20184;-83
2022/08/09 02:55:10;;;;;;;4.50;2.50;;;17.90;99.90;;;;;;5013556;28;20217;-83
2022/08/09 02:57:38;;;;;;;4.22;2.42;;;17.90;99.90;;;;;;5013234;28;20168;-82
2022/08/09 03:00:09;;;;;;;6.38;2.42;;;18.00;99.90;;;;;;5013273;28;20676;-82
2022/08/09 03:02:37;;;;;;;5.90;2.70;;;18.00;99.90;;;;;;5013294;28;20259;-84
2022/08/09 03:05:06;;;;;;;6.18;2.63;;;18.20;99.90;;;;;;5013220;28;20196;-83
2022/08/09 03:07:33;;;;;;;3.53;3.20;;;18.40;99.90;;;;;;5013008;28;20208;-83
2022/08/09 03:09:59;;;;;;;5.88;3.35;;;18.30;99.90;;;;;;5013063;28;20192;-83
2022/08/09 03:12:26;;;;;;;8.27;2.92;;;18.20;99.90;;;;;;5014499;28;20160;-83
2022/08/09 03:14:52;;;;;;;5.25;2.70;;;18.30;99.90;;;;;;5012766;28;20235;-82
2022/08/09 03:17:20;;;;;;;2.67;2.47;;;18.20;99.90;;;;;;5012814;28;20175;-83
2022/08/09 03:19:46;;;;;;;3.50;2.85;;;18.10;99.90;;;;;;5012418;28;20223;-83
2022/08/09 03:22:13;;;;;;;7.03;2.95;;;18.10;99.90;;;;;;5012916;28;20165;-81
2022/08/09 03:24:39;;;;;;;3.95;2.83;;;18.10;99.90;;;;;;5013147;28;20188;-84
2022/08/09 03:27:08;;;;;;;8.55;2.92;;;18.00;99.90;;;;;;5012920;28;20200;-83
2022/08/09 03:29:35;;;;;;;5.93;2.92;;;18.00;99.90;;;;;;5012037;28;20184;-83
2022/08/09 03:32:02;;;;;;;15.30;3.63;;;18.00;99.90;;;;;;5013903;28;20530;-82
2022/08/09 03:34:27;;;;;;;3.50;2.55;;;18.10;99.90;;;;;;5013074;28;20195;-83
2022/08/09 03:36:54;;;;;;;7.68;2.83;;;17.90;99.90;;;;;;5016180;28;20565;-83
2022/08/09 03:39:20;;;;;;;10.02;2.95;;;17.90;99.90;;;;;;5012477;28;20168;-83
2022/08/09 03:41:46;;;;;;;4.15;2.70;;;17.80;99.90;;;;;;5012494;28;20231;-82
2022/08/09 03:44:11;;;;;;;3.42;2.78;;;17.90;99.90;;;;;;5012363;28;20184;-83
2022/08/09 03:46:37;;;;;;;6.85;3.30;;;17.90;99.90;;;;;;5012410;28;20673;-83
2022/08/09 03:49:04;;;;;;;9.73;3.97;;;17.80;99.90;;;;;;5013900;28;20529;-83
2022/08/09 03:51:30;;;;;;;9.73;3.38;;;17.90;99.90;;;;;;5012411;28;20533;-82
2022/08/09 03:53:56;;;;;;;8.25;3.92;;;17.90;99.90;;;;;;5013719;28;20172;-83
2022/08/09 03:56:22;;;;;;;4.60;2.95;;;17.90;99.90;;;;;;5012539;28;20181;-83
2022/08/09 03:58:48;;;;;;;8.00;3.53;;;18.00;99.90;;;;;;5012426;28;20562;-83
2022/08/09 04:01:15;;;;;;;10.18;3.65;;;17.90;99.90;;;;;;5012168;28;20188;-82
2022/08/09 04:03:41;;;;;;;4.88;3.60;;;17.90;99.90;;;;;;5012287;28;20175;-83
2022/08/09 04:06:07;;;;;;;5.75;3.33;;;18.00;99.90;;;;;;5012364;28;20188;-83
2022/08/09 04:08:33;;;;;;;7.10;3.45;;;17.90;99.90;;;;;;5012552;28;20561;-83
2022/08/09 04:10:59;;;;;;;7.97;3.78;;;18.00;99.90;;;;;;5012316;28;20203;-83
2022/08/09 04:13:24;;;;;;;7.80;3.88;;;17.80;99.90;;;;;;5011903;28;20176;-84
2022/08/09 04:15:50;;;;;;;5.15;3.03;;;17.70;99.90;;;;;;5012075;28;20180;-84
2022/08/09 04:18:16;;;;;;;4.97;3.00;;;17.80;99.90;;;;;;5011865;28;20521;-83
2022/08/09 04:20:41;;;;;;;9.40;3.55;;;17.70;99.90;;;;;;5012020;28;20211;-82
2022/08/09 04:23:07;;;;;;;3.40;3.20;;;17.70;99.90;;;;;;5012271;28;20207;-84
2022/08/09 04:25:34;;;;;;;4.10;3.53;;;17.70;99.90;;;;;;5012325;28;20653;-83
2022/08/09 04:27:59;;;;;;;7.88;3.45;;;17.70;99.90;;;;;;5013148;28;20164;-83
2022/08/09 04:30:25;;;;;;;3.50;3.20;;;17.60;99.90;;;;;;5012032;28;20203;-83
2022/08/09 04:32:51;;;;;;;3.85;3.45;;;17.70;99.90;;;;;;5013371;28;20656;-83
2022/08/09 04:35:18;;;;;;;4.60;3.83;;;17.70;99.90;;;;;;5012016;28;20164;-83
2022/08/09 04:37:44;;;;;;;4.72;3.55;;;17.60;99.90;;;;;;5013645;28;20179;-83
2022/08/09 04:40:10;;;;;;;5.70;4.03;;;17.60;99.90;;;;;;5014064;28;20204;-84
2022/08/09 04:42:36;;;;;;;14.63;4.22;;;17.70;99.90;;;;;;5024802;28;20176;-83
2022/08/09 04:45:03;;;;;;;5.63;3.88;;;17.60;99.90;;;;;;5030088;28;20176;-83
2022/08/09 04:47:29;;;;;;;6.45;3.97;;;17.40;99.90;;;;;;5028997;28;20696;-83
2022/08/09 04:49:55;;;;;;;6.13;3.40;;;17.30;99.90;;;;;;5028472;28;20188;-84
2022/08/09 04:52:25;;;;;;;4.80;4.13;;;17.40;99.90;;;;;;5029840;28;20232;-84
2022/08/09 04:54:51;;;;;;;6.32;3.97;;;17.40;99.90;;;;;;5026656;28;20215;-83
2022/08/09 04:57:18;;;;;;;8.13;3.97;;;17.50;99.90;;;;;;5025251;28;20656;-83
2022/08/09 04:59:43;;;;;;;7.35;4.07;;;17.80;99.90;;;;;;5031137;28;20215;-84
2022/08/09 05:02:09;;;;;;;8.20;3.92;;;17.90;99.90;;;;;;5032801;28;20157;-83
2022/08/09 05:04:35;;;;;;;7.78;4.43;;;17.90;99.90;;;;;;5033093;28;20164;-83
2022/08/09 05:07:01;;;;;;;5.97;4.35;;;18.00;99.90;;;;;;5029982;28;20208;-86
2022/08/09 05:09:29;;;;;;;11.77;4.18;;;18.10;99.90;;;;;;5030957;28;20195;-83
2022/08/09 05:11:55;;;;;;;11.10;4.22;;;18.00;99.90;;;;;;5027008;28;20156;-85
2022/08/09 05:14:20;;;;;;;6.18;3.88;;;18.10;99.90;;;;;;5024637;28;20172;-84
2022/08/09 05:16:46;;;;;;;5.00;4.30;;;18.00;99.90;;;;;;5024221;28;20169;-84
2022/08/09 05:19:13;;;;;;;5.72;4.53;;;17.80;99.90;;;;;;5028365;23;20345;-84
2022/08/09 05:21:40;;;;;;;11.32;4.25;;;18.00;99.90;;;;;;5012284;28;20181;-84
2022/08/09 05:24:05;;;;;;;12.98;4.70;;;18.10;99.90;;;;;;5012094;28;20165;-87
2022/08/09 05:26:31;;;;;;;4.38;3.97;;;18.00;99.90;;;;;;5014351;28;20204;-89
2022/08/09 05:28:57;;;;;;;7.38;4.10;;;17.90;99.90;;;;;;5012434;28;20256;-80
2022/08/09 05:31:23;;;;;;;11.15;4.63;;;17.80;99.90;;;;;;5012749;28;20208;-80
2022/08/09 05:33:48;;;;;;;13.70;4.53;;;18.00;99.90;;;;;;5012472;28;20168;-80
2022/08/09 05:36:14;;;;;;;6.53;4.68;;;18.00;99.90;;;;;;5012138;28;20169;-79
2022/08/09 05:38:40;;;;;;;10.23;4.32;;;18.00;99.90;;;;;;5012032;28;20179;-80
2022/08/09 05:41:06;;;;;;;8.75;4.57;;;18.10;99.90;;;;;;5012904;28;20184;-80
2022/08/09 05:43:34;;;;;;;11.55;4.53;;;18.20;99.90;;;;;;5013462;28;20183;-79
2022/08/09 05:46:03;;;;;;;5.20;4.40;;;18.30;99.90;;;;;;5012830;28;20208;-84
2022/08/09 05:48:29;;;;;;;7.75;4.90;;;18.40;99.90;;;;;;5010809;28;20176;-81
2022/08/09 05:50:55;;;;;;;16.63;4.40;;;18.60;99.90;;;;;;5010660;28;20188;-81
2022/08/09 05:53:21;;;;;;;9.07;4.97;;;18.50;99.90;;;;;;5011872;28;20200;-82
2022/08/09 05:55:47;;;;;;;7.18;4.47;;;18.30;99.90;;;;;;5015650;28;20529;-82
2022/08/09 05:58:12;;;;;;;7.32;4.75;;;18.20;99.90;;;;;;5014255;28;20257;-82
2022/08/09 06:00:38;;;;;;;9.43;4.82;;;18.20;99.90;;;;;;5014041;28;20275;-82
2022/08/09 06:03:03;;;;;;;4.80;4.05;;;18.30;99.90;;;;;;5014109;28;20223;-82
2022/08/09 06:05:32;;;;;;;7.18;3.95;;;18.40;99.90;;;;;;5015135;28;20160;-82
2022/08/09 06:07:57;;;;;;;6.55;4.18;;;18.30;99.90;;;;;;5015157;28;20176;-82
2022/08/09 06:10:36;;;;;;;8.85;4.68;;;18.30;99.90;;;;;;5015194;28;20239;-82
2022/08/09 06:13:06;;;;;;;11.13;4.80;;;18.40;99.90;;;;;;5015473;28;20229;-82
2022/08/09 06:15:32;;;;;;;20.60;5.88;;;18.60;99.90;;;;;;5014724;28;20660;-80
2022/08/09 06:17:58;;;;;;;13.98;4.72;;;18.90;99.90;;;;;;5014423;28;20172;-83
2022/08/09 06:20:24;;;;;;;12.23;4.50;;;19.20;99.90;;;;;;5015491;28;20200;-83
2022/08/09 06:22:49;;;;;;;5.05;4.45;;;19.20;99.90;;;;;;5015474;28;20204;-82
2022/08/09 06:25:15;;;;;;;8.02;4.55;;;19.00;99.90;;;;;;5015250;28;20275;-83
2022/08/09 06:27:41;;;;;;;8.10;4.65;;;19.10;99.90;;;;;;5015013;28;20242;-83
2022/08/09 06:30:07;;;;;;;9.55;4.05;;;19.10;99.90;;;;;;5014631;28;20590;-79
2022/08/09 06:32:33;;;;;;;20.42;4.35;;;19.00;99.90;;;;;;5014876;28;20169;-81
2022/08/09 06:34:58;;;;;;;18.10;4.85;;;19.10;99.90;;;;;;5015224;28;20247;-81
2022/08/09 06:37:24;;;;;;;22.42;4.75;;;19.20;99.90;;;;;;5014933;28;20255;-83
2022/08/09 06:39:50;;;;;;;7.82;4.45;;;19.20;99.90;;;;;;5013839;28;20188;-81
2022/08/09 06:42:17;;;;;;;12.63;4.45;;;19.20;99.90;;;;;;5014963;28;20196;-81
2022/08/09 06:44:42;;;;;;;4.07;3.70;;;19.20;99.90;;;;;;5014495;28;20180;-80
2022/08/09 06:47:08;;;;;;;7.05;3.88;;;19.30;99.90;;;;;;5013711;28;20593;-84
2022/08/09 06:49:34;;;;;;;11.90;4.35;;;19.40;99.90;;;;;;5014636;28;20188;-82
2022/08/09 06:51:59;;;;;;;9.02;4.25;;;19.50;99.90;;;;;;5011679;28;20177;-79
2022/08/09 06:54:25;;;;;;;11.02;4.20;;;19.70;99.90;;;;;;5013996;28;20547;-79
2022/08/09 06:56:50;;;;;;;8.27;3.75;;;19.90;99.90;;;;;;5014090;28;20227;-78
2022/08/09 06:59:16;;;;;;;11.10;4.32;;;20.00;99.90;;;;;;5014258;28;20188;-78
2022/08/09 07:01:42;;;;;;;10.73;4.47;;;20.10;99.90;;;;;;5004319;28;20169;-80
2022/08/09 07:04:07;;;;;;;10.80;3.78;;;20.10;99.90;;;;;;4994500;28;20577;-80
2022/08/09 07:06:34;;;;;;;13.60;3.85;;;20.10;99.90;;;;;;4994097;28;20735;-82
2022/08/09 07:08:59;;;;;;;4.55;3.90;;;20.30;99.90;;;;;;4994333;28;20192;-80
2022/08/09 07:11:25;;;;;;;6.20;3.50;;;20.00;99.90;;;;;;4992719;28;20572;-83
2022/08/09 07:13:51;;;;;;;10.57;3.50;;;20.10;99.90;;;;;;4994728;28;20169;-82
2022/08/09 07:16:16;;;;;;;10.52;3.55;;;20.20;99.90;;;;;;4994353;28;20701;-82
2022/08/09 07:18:42;;;;;;;3.17;2.90;;;20.30;99.90;;;;;;4994454;28;20577;-80
2022/08/09 07:21:08;;;;;;;3.63;3.33;;;20.30;99.90;;;;;;4999229;28;20219;-81
2022/08/09 07:23:34;;;;;;;7.88;3.15;;;20.60;99.90;;;;;;5014245;28;20537;-82
2022/08/09 07:25:59;;;;;;;3.05;2.75;;;21.30;99.90;;;;;;5013753;28;20653;-80
2022/08/09 07:28:25;;;;;;;6.80;2.50;;;22.00;99.90;;;;;;5014231;28;20164;-88
2022/08/09 07:30:52;;;;;;;7.25;2.15;;;22.60;99.90;;;;;;5014157;28;20657;-86
2022/08/09 07:33:18;;;;;;;5.57;3.00;;;23.10;99.90;;;;;;5015122;28;20153;-84
2022/08/09 07:35:44;;;;;;;6.55;2.70;;;23.20;99.90;;;;;;5015534;28;20228;-88
2022/08/09 07:38:09;;;;;;;3.95;2.30;;;23.50;99.90;;;;;;5032049;28;20252;-90
2022/08/09 07:40:35;;;;;;;17.27;2.63;;;23.70;99.90;;;;;;5035886;28;20192;-87
2022/08/09 07:43:00;;;;;;;5.68;2.50;;;23.10;99.90;;;;;;5034485;28;20169;-88
2022/08/09 07:45:30;;;;;;;5.53;2.70;;;22.80;99.90;;;;;;5029523;28;20173;-85
2022/08/09 07:47:57;;;;;;;4.85;2.40;;;22.60;99.90;;;;;;5017105;28;20169;-83
2022/08/09 07:50:26;;;;;;;5.70;2.28;;;22.40;99.90;;;;;;5012467;28;20243;-80
2022/08/09 07:52:52;;;;;;;6.28;2.33;;;22.10;99.90;;;;;;5008005;28;20152;-81
2022/08/09 07:55:17;;;;;;;8.85;2.78;;;22.10;99.90;;;;;;5010015;28;20209;-79
2022/08/09 07:57:46;;;;;;;7.25;2.42;;;22.10;99.90;;;;;;5011906;28;20258;-80
2022/08/09 08:00:13;;;;;;;9.65;2.50;;;22.10;99.90;;;;;;5003241;28;20220;-80
2022/08/09 08:02:39;;;;;;;2.95;2.35;;;22.20;99.90;;;;;;4993581;28;20212;-79
2022/08/09 08:05:05;;;;;;;6.53;2.50;;;22.10;99.90;;;;;;4994986;28;20189;-86
2022/08/09 08:07:31;;;;;;;7.72;2.25;;;22.00;99.90;;;;;;4993427;28;20308;-80
2022/08/09 08:09:56;;;;;;;4.22;1.80;;;22.00;99.90;;;;;;4993398;28;20181;-84
2022/08/09 08:12:24;;;;;;;2.83;2.10;;;22.10;99.90;;;;;;4994421;28;20215;-88
2022/08/09 08:14:51;;;;;;;4.82;2.03;;;22.30;99.90;;;;;;4995855;28;20188;-90
2022/08/09 08:17:17;;;;;;;3.00;2.15;;;22.20;99.90;;;;;;4992436;28;20168;-88
2022/08/09 08:19:43;;;;;;;2.75;2.08;;;22.20;99.90;;;;;;4992321;28;20213;-89
2022/08/09 08:22:09;;;;;;;3.63;2.35;;;22.40;99.90;;;;;;4993734;28;20173;-90
2022/08/09 08:24:34;;;;;;;6.10;1.75;;;22.30;99.90;;;;;;4993533;28;20176;-91
2022/08/09 08:27:00;;;;;;;7.80;2.13;;;22.50;99.90;;;;;;4993878;28;20212;-89
2022/08/09 08:29:26;;;;;;;2.83;1.63;;;22.70;99.90;;;;;;4994281;28;20225;-91
2022/08/09 08:31:52;;;;;;;2.00;1.80;;;22.80;99.90;;;;;;4994049;28;20208;-89
2022/08/09 08:34:17;;;;;;;14.77;2.05;;;22.80;99.90;;;;;;4993691;28;20169;-92
2022/08/09 08:36:43;;;;;;;14.05;2.13;;;22.70;99.90;;;;;;4993367;28;20200;-87
2022/08/09 08:39:10;;;;;;;4.65;1.83;;;22.60;99.90;;;;;;4993966;28;20220;-88
2022/08/09 08:41:37;;;;;;;3.90;2.22;;;22.80;99.90;;;;;;4993295;28;20285;-92
2022/08/09 08:44:03;;;;;;;7.72;2.03;;;23.10;99.90;;;;;;4994782;28;20172;-92
2022/08/09 08:46:34;;;;;;;6.70;2.10;;;23.10;99.90;;;;;;4996337;28;20272;-88
2022/08/09 08:49:00;;;;;;;9.07;2.13;;;23.10;99.90;;;;;;4998321;28;20188;-88
2022/08/09 08:51:26;;;;;;;3.35;1.85;;;23.30;99.90;;;;;;4996698;28;20211;-89
2022/08/09 08:53:52;;;;;;;4.30;1.98;;;23.40;99.90;;;;;;4996585;28;20578;-89
2022/08/09 08:56:19;;;;;;;9.05;1.77;;;23.40;99.90;;;;;;4993427;28;20176;-90
2022/08/09 08:58:46;;;;;;;3.47;1.92;;;23.40;99.90;;;;;;4993744;28;20227;-88
2022/08/09 09:01:12;;;;;;;3.35;1.67;;;23.40;99.90;;;;;;4993773;28;20199;-88
2022/08/09 09:03:46;;;;;;;5.57;1.60;;;23.40;99.90;;;;;;4993476;28;20169;-91
2022/08/09 09:06:13;;;;;;;11.55;1.50;;;23.50;99.90;;;;;;4994563;28;20248;-90
2022/08/09 09:08:41;;;;;;;5.30;1.45;;;23.50;99.90;;;;;;4993913;28;20271;-88
2022/08/09 09:11:10;;;;;;;2.95;1.40;;;23.60;99.90;;;;;;4994051;28;20200;-89
2022/08/09 09:13:38;;;;;;;3.03;1.48;;;23.70;99.90;;;;;;4993569;28;20208;-89
2022/08/09 09:16:04;;;;;;;6.20;1.60;;;23.80;99.90;;;;;;4992844;28;20539;-89
2022/08/09 09:18:29;;;;;;;9.80;2.13;;;23.90;99.90;;;;;;4993205;28;20201;-89
2022/08/09 09:20:56;;;;;;;4.95;1.65;;;23.80;99.90;;;;;;4992723;28;20254;-90
2022/08/09 09:23:41;;;;;;;3.45;1.15;;;23.70;99.90;;;;;;4993277;28;20203;-88
2022/08/09 09:26:07;;;;;;;2.55;1.40;;;23.80;99.90;;;;;;4993125;28;20201;-88
2022/08/09 09:28:34;;;;;;;10.65;1.17;;;23.90;99.90;;;;;;4995369;28;20172;-88
2022/08/09 09:31:00;;;;;;;7.05;1.77;;;23.80;99.90;;;;;;4997985;28;20182;-88
2022/08/09 09:33:36;;;;;;;7.95;1.85;;;23.90;99.90;;;;;;4997289;28;20169;-90
2022/08/09 09:36:06;;;;;;;6.57;1.88;;;23.90;99.90;;;;;;4996833;28;20264;-88
2022/08/09 09:38:48;;;;;;;9.93;1.50;;;23.90;99.90;;;;;;4996841;28;20210;-88
2022/08/09 09:41:25;;;;;;;4.22;1.52;;;24.10;99.90;;;;;;5000167;28;20219;-88
2022/08/09 09:43:58;;;;;;;3.20;1.45;;;24.10;99.90;;;;;;5002306;28;20537;-88
2022/08/09 09:46:33;;;;;;;8.15;1.50;;;24.10;99.90;;;;;;5001951;28;20209;-88
2022/08/09 09:49:03;;;;;;;2.47;1.25;;;24.10;99.90;;;;;;4986757;28;20180;-88
2022/08/09 09:51:30;;;;;;;5.10;1.25;;;24.20;99.90;;;;;;5003343;28;20252;-88
2022/08/09 09:54:05;;;;;;;2.38;1.27;;;24.20;99.90;;;;;;5000756;28;20173;-88
2022/08/09 09:56:37;;;;;;;6.30;1.42;;;24.40;99.90;;;;;;5001674;28;20184;-87
2022/08/09 09:59:04;;;;;;;5.72;1.13;;;24.60;99.90;;;;;;4996873;28;20256;-85
2022/08/09 10:01:30;;;;;;;3.28;1.40;;;24.90;99.90;;;;;;4996670;28;20207;-85
2022/08/09 10:03:56;;;;;;;5.15;1.30;;;24.70;99.90;;;;;;4996224;28;20173;-87
2022/08/09 10:06:22;;;;;;;2.97;1.40;;;24.90;99.90;;;;;;4995915;28;20303;-84
2022/08/09 10:08:50;;;;;;;2.42;1.50;;;24.90;99.90;;;;;;4995560;28;20593;-86
2022/08/09 10:11:20;;;;;;;1.50;1.15;;;24.80;99.90;;;;;;4996022;28;20273;-89
2022/08/09 10:13:46;;;;;;;4.50;1.30;;;24.80;99.90;;;;;;4998608;28;20165;-88
2022/08/09 10:16:13;;;;;;;2.80;1.25;;;24.80;99.90;;;;;;4998463;28;20179;-89
2022/08/09 10:18:47;;;;;;;3.30;1.55;;;24.70;99.90;;;;;;4998764;28;20165;-87
2022/08/09 10:21:13;;;;;;;4.70;1.67;;;24.70;99.90;;;;;;5000463;28;20208;-88
2022/08/09 10:23:42;;;;;;;4.75;1.50;;;24.70;99.90;;;;;;4998684;28;20173;-87
2022/08/09 10:26:09;;;;;;;3.95;1.30;;;24.80;99.90;;;;;;4999693;28;20193;-87
2022/08/09 10:28:36;;;;;;;7.82;1.15;;;24.90;99.90;;;;;;4999018;28;20179;-87
2022/08/09 10:31:02;;;;;;;3.97;1.40;;;24.70;99.90;;;;;;4983463;28;20197;-88
2022/08/09 10:33:29;;;;;;;3.63;1.17;;;24.80;99.90;;;;;;5003052;28;20222;-87
2022/08/09 10:35:55;;;;;;;3.47;1.17;;;25.10;99.90;;;;;;5001275;28;20165;-87
2022/08/09 10:38:21;;;;;;;2.60;1.60;;;25.30;99.90;;;;;;5000368;28;20176;-89
2022/08/09 10:40:47;;;;;;;2.40;1.08;;;25.30;99.90;;;;;;5000135;28;20193;-89
2022/08/09 10:43:17;;;;;;;2.53;1.40;;;25.30;99.90;;;;;;5000407;28;20172;-88
2022/08/09 10:45:44;;;;;;;2.58;1.10;;;25.20;99.90;;;;;;5002440;28;20169;-89
2022/08/09 10:48:55;;;;;;;6.00;1.20;;;25.20;99.90;;;;;;4999374;28;20638;-89
2022/08/09 10:51:33;;;;;;;1.45;1.05;;;25.40;99.90;;;;;;4967524;28;20194;-89
2022/08/09 10:54:01;;;;;;;1.65;1.35;;;25.40;99.90;;;;;;4992782;28;20528;-89
2022/08/09 10:56:29;;;;;;;7.65;1.40;;;25.30;99.90;;;;;;5003414;28;20161;-88
2022/08/09 10:58:57;;;;;;;13.82;2.10;;;25.30;99.90;;;;;;5004510;28;20665;-87
2022/08/09 11:01:31;;;;;;;9.15;1.88;;;25.20;99.90;;;;;;5001850;28;20245;-87
2022/08/09 11:04:10;;;;;;;4.13;1.55;;;25.20;99.90;;;;;;5000572;28;20172;-88
2022/08/09 11:06:37;;;;;;;9.40;1.42;;;25.30;99.90;;;;;;5000417;28;20208;-88
2022/08/09 11:09:04;;;;;;;5.45;1.25;;;25.20;99.90;;;;;;4999610;28;20215;-88
2022/08/09 11:11:56;;;;;;;5.15;1.10;;;25.30;99.90;;;;;;5003298;28;20193;-89
2022/08/09 11:15:00;;;;;;;3.17;1.38;;;25.50;99.90;;;;;;5002427;28;20633;-88
2022/08/09 11:18:04;;;;;;;7.95;1.42;;;25.60;99.90;;;;;;5007468;28;20200;-88
2022/08/09 11:21:00;;;;;;;3.20;1.40;;;25.70;99.90;;;;;;5001785;28;20201;-88
2022/08/09 11:23:58;;;;;;;2.72;1.30;;;25.60;99.90;;;;;;5002383;28;20157;-88
2022/08/09 11:26:59;;;;;;;2.05;1.10;;;25.50;99.90;;;;;;5005358;28;20271;-88
2022/08/09 11:29:53;;;;;;;4.97;1.13;;;25.50;99.90;;;;;;5005594;28;20196;-88
2022/08/09 11:32:42;;;;;;;2.03;1.10;;;25.50;99.90;;;;;;5007675;28;20169;-87
2022/08/09 11:35:24;;;;;;;2.97;1.38;;;25.60;99.90;;;;;;5007754;28;20696;-88
2022/08/09 11:37:51;;;;;;;8.05;1.17;;;25.70;99.90;;;;;;5001184;28;20264;-88
2022/08/09 11:40:23;;;;;;;5.43;1.35;;;25.60;99.90;;;;;;4999099;28;20223;-88
2022/08/09 11:42:52;;;;;;;3.92;1.40;;;25.80;99.90;;;;;;4995032;28;20259;-91
2022/08/09 11:45:27;;;;;;;3.03;1.30;;;25.80;99.90;;;;;;4994500;28;20634;-88
2022/08/09 11:47:56;;;;;;;2.67;1.13;;;25.80;99.90;;;;;;4994636;28;20212;-87
2022/08/09 11:50:23;;;;;;;3.72;0.98;;;25.70;99.90;;;;;;4994198;28;20192;-87
2022/08/09 11:52:58;;;;;;;8.00;1.05;;;25.50;99.90;;;;;;4995357;28;20629;-88
2022/08/09 11:55:37;;;;;;;1.83;1.20;;;25.40;99.90;;;;;;4994273;28;20176;-87
2022/08/09 11:58:12;;;;;;;3.67;1.45;;;25.70;99.90;;;;;;4994763;28;20173;-90
2022/08/09 12:00:51;;;;;;;3.30;1.50;;;25.70;99.90;;;;;;4994503;28;20192;-89
2022/08/09 12:03:18;;;;;;;2.38;1.20;;;25.50;99.90;;;;;;4994394;28;20187;-87
2022/08/09 12:05:45;;;;;;;11.40;1.38;;;25.70;99.90;;;;;;4996959;28;20169;-89
2022/08/09 12:08:12;;;;;;;2.67;1.10;;;25.80;99.90;;;;;;4995827;28;20184;-91
2022/08/09 12:10:47;;;;;;;3.90;0.80;;;25.80;99.90;;;;;;4994790;28;20271;-90
2022/08/09 12:13:31;;;;;;;1.58;0.82;;;25.90;99.90;;;;;;4994836;28;20220;-89
2022/08/09 12:16:13;;;;;;;10.63;1.30;;;26.00;99.90;;;;;;5006227;28;20220;-89
2022/08/09 12:18:45;;;;;;;3.47;0.93;;;26.10;99.90;;;;;;5005795;28;20176;-88
2022/08/09 12:21:34;;;;;;;3.38;1.08;;;26.00;99.90;;;;;;5004471;28;20697;-89
2022/08/09 12:24:24;;;;;;;8.82;1.10;;;26.00;99.90;;;;;;5011937;28;20221;-88
2022/08/09 12:27:21;;;;;;;5.35;1.27;;;26.00;99.90;;;;;;5010478;28;20212;-88
2022/08/09 12:29:55;;;;;;;13.15;1.23;;;26.10;99.90;;;;;;5005270;28;20196;-88
2022/08/09 12:32:26;;;;;;;3.00;1.30;;;26.20;99.90;;;;;;5007286;28;20165;-88
2022/08/09 12:35:00;;;;;;;8.40;0.95;;;26.00;99.90;;;;;;5009468;28;20700;-88
2022/08/09 12:37:31;;;;;;;2.63;1.20;;;26.10;99.90;;;;;;5007511;28;20174;-87
2022/08/09 12:40:03;;;;;;;8.02;1.17;;;26.20;99.90;;;;;;5006767;28;20193;-86
2022/08/09 12:42:29;;;;;;;11.82;1.05;;;26.40;99.90;;;;;;5004412;28;20272;-87
2022/08/09 12:44:55;;;;;;;9.85;1.15;;;26.40;99.90;;;;;;5001199;28;20212;-87
2022/08/09 12:47:21;;;;;;;4.57;1.35;;;26.50;99.90;;;;;;5000551;28;20287;-87
2022/08/09 12:52:42;;;;;;;4.57;0.95;;;26.70;99.90;;;;;;5005558;28;20172;-92
2022/08/09 12:55:10;;;;;;;6.85;1.00;;;26.80;99.90;;;;;;5007694;28;20281;-88
2022/08/09 12:57:41;;;;;;;1.10;1.00;;;26.60;99.90;;;;;;5007322;28;20200;-89
2022/08/09 13:00:23;;;;;;;2.85;1.30;;;26.50;99.90;;;;;;5005601;28;20343;-89